createdAt,value
2022-12-23T00:00:29.833Z,99446.91
2022-12-23T00:01:04.483Z,99449.16
2022-12-23T00:01:36.510Z,99437.00
2022-12-23T00:02:08.523Z,99441.28
2022-12-23T00:02:40.618Z,99442.34
2022-12-23T00:03:12.829Z,99435.94
2022-12-23T00:03:45.018Z,99444.16
2022-12-23T00:04:17.020Z,99446.38
2022-12-23T00:04:48.907Z,99450.66
2022-12-23T00:05:20.784Z,99449.50
2022-12-23T00:05:53.034Z,99458.06
2022-12-23T00:06:25.854Z,99457.44
2022-12-23T00:06:57.719Z,99454.50
2022-12-23T00:07:29.549Z,99444.50
2022-12-23T00:08:01.385Z,99441.56
2022-12-23T00:08:34.791Z,99449.06
2022-12-23T00:09:06.634Z,99442.53
2022-12-23T00:09:38.493Z,99441.91
2022-12-23T00:10:10.943Z,99439.25
2022-12-23T00:10:43.213Z,99448.16
2022-12-23T00:11:19.977Z,99435.75
2022-12-23T00:12:10.829Z,99438.34
2022-12-23T00:13:01.191Z,99453.50
2022-12-23T00:13:51.668Z,99449.84
2022-12-23T00:14:42.231Z,99452.44
2022-12-23T00:15:14.404Z,99450.13
2022-12-23T00:15:46.241Z,99451.63
2022-12-23T00:16:18.157Z,99447.91
2022-12-23T00:16:51.155Z,99448.78
2022-12-23T00:17:23.732Z,99453.75
2022-12-23T00:17:55.625Z,99456.72
2022-12-23T00:18:27.448Z,99463.78
2022-12-23T00:18:59.290Z,99449.94
2022-12-23T00:19:31.101Z,99451.91
2022-12-23T00:20:04.696Z,99454.50
2022-12-23T00:20:36.567Z,99457.25
2022-12-23T00:21:14.346Z,99459.50
2022-12-23T00:21:46.171Z,99456.09
2022-12-23T00:22:18.140Z,99462.34
2022-12-23T00:23:05.300Z,99459.56
2022-12-23T00:23:40.598Z,99458.41
2022-12-23T00:24:12.464Z,99458.69
2022-12-23T00:24:44.335Z,99459.50
2022-12-23T00:25:16.417Z,99456.00
2022-12-23T00:25:48.429Z,99462.16
2022-12-23T00:26:22.825Z,99460.81
2022-12-23T00:26:54.680Z,99457.59
2022-12-23T00:27:27.090Z,99462.59
2022-12-23T00:28:02.423Z,99457.16
2022-12-23T00:28:34.285Z,99460.03
2022-12-23T00:29:06.676Z,99460.91
2022-12-23T00:29:38.509Z,99463.50
2022-12-23T00:30:10.953Z,99463.50
2022-12-23T00:30:48.872Z,99459.37
2022-12-23T00:31:21.304Z,99460.56
2022-12-23T00:31:53.343Z,99465.19
2022-12-23T00:32:25.230Z,99457.88
2022-12-23T00:32:57.051Z,99461.53
2022-12-23T00:33:32.142Z,99459.47
2022-12-23T00:34:04.011Z,99466.09
2022-12-23T00:34:35.908Z,99453.78
2022-12-23T00:35:08.036Z,99459.00
2022-12-23T00:35:40.048Z,99456.34
2022-12-23T00:36:19.926Z,99453.50
2022-12-23T00:36:51.830Z,99456.78
2022-12-23T00:37:23.771Z,99458.22
2022-12-23T00:37:55.640Z,99463.84
2022-12-23T00:38:47.152Z,99458.59
2022-12-23T00:39:38.184Z,99463.03
2022-12-23T00:40:32.100Z,99453.97
2022-12-23T00:41:33.825Z,99462.00
2022-12-23T00:42:24.128Z,99460.19
2022-12-23T00:42:56.048Z,99455.91
2022-12-23T00:43:28.159Z,99453.78
2022-12-23T00:44:01.057Z,99458.06
2022-12-23T00:44:33.225Z,99453.56
2022-12-23T00:45:15.885Z,99457.59
2022-12-23T00:45:48.236Z,99455.34
2022-12-23T00:46:20.227Z,99459.75
2022-12-23T00:46:52.154Z,99463.84
2022-12-23T00:47:42.584Z,99464.56
2022-12-23T00:48:33.703Z,99447.53
2022-12-23T00:49:24.372Z,99462.25
2022-12-23T00:49:56.585Z,99460.72
2022-12-23T00:50:28.878Z,99455.81
2022-12-23T00:51:00.755Z,99460.19
2022-12-23T00:51:32.764Z,99449.75
2022-12-23T00:52:06.632Z,99448.69
2022-12-23T00:52:38.440Z,99455.91
2022-12-23T00:53:10.305Z,99451.53
2022-12-23T00:53:42.129Z,99456.09
2022-12-23T00:54:14.129Z,99452.00
2022-12-23T00:54:46.053Z,99458.78
2022-12-23T00:55:18.208Z,99457.72
2022-12-23T00:55:50.832Z,99458.78
2022-12-23T00:56:22.706Z,99452.34
2022-12-23T00:56:54.788Z,99455.47
2022-12-23T00:57:26.657Z,99452.53
2022-12-23T00:57:58.863Z,99450.75
2022-12-23T00:58:32.006Z,99453.16
2022-12-23T00:59:04.106Z,99455.13
2022-12-23T00:59:36.170Z,99450.84
2022-12-23T01:00:08.836Z,99450.47
2022-12-23T01:01:00.141Z,99443.16
2022-12-23T01:01:51.162Z,99442.44
2022-12-23T01:02:42.124Z,99445.22
2022-12-23T01:03:33.980Z,99451.19
2022-12-23T01:04:24.419Z,99461.25
2022-12-23T01:05:14.676Z,99449.31
2022-12-23T01:05:46.828Z,99442.63
2022-12-23T01:06:18.725Z,99442.28
2022-12-23T01:06:50.576Z,99442.00
2022-12-23T01:07:23.492Z,99443.44
2022-12-23T01:07:55.842Z,99446.63
2022-12-23T01:08:28.059Z,99446.00
2022-12-23T01:08:59.950Z,99444.50
2022-12-23T01:09:32.129Z,99438.06
2022-12-23T01:10:04.459Z,99443.41
2022-12-23T01:10:40.561Z,99439.06
2022-12-23T01:11:13.180Z,99439.97
2022-12-23T01:11:44.997Z,99437.72
2022-12-23T01:12:16.886Z,99440.12
2022-12-23T01:12:48.747Z,99435.41
2022-12-23T01:13:21.331Z,99430.94
2022-12-23T01:13:53.184Z,99428.25
2022-12-23T01:14:25.989Z,99429.06
2022-12-23T01:14:57.823Z,99428.97
2022-12-23T01:15:29.917Z,99423.09
2022-12-23T01:16:04.409Z,99427.03
2022-12-23T01:16:38.608Z,99425.88
2022-12-23T01:17:10.558Z,99424.06
2022-12-23T01:17:42.415Z,99435.31
2022-12-23T01:18:14.269Z,99434.59
2022-12-23T01:18:46.152Z,99430.75
2022-12-23T01:19:17.997Z,99433.62
2022-12-23T01:19:49.871Z,99434.84
2022-12-23T01:20:21.783Z,99431.38
2022-12-23T01:20:53.657Z,99434.84
2022-12-23T01:21:25.500Z,99430.94
2022-12-23T01:21:57.711Z,99435.75
2022-12-23T01:22:29.668Z,99435.94
2022-12-23T01:23:01.582Z,99434.53
2022-12-23T01:23:34.695Z,99432.38
2022-12-23T01:24:06.977Z,99432.09
2022-12-23T01:24:38.913Z,99430.94
2022-12-23T01:25:10.899Z,99428.53
2022-12-23T01:25:42.710Z,99434.59
2022-12-23T01:26:14.581Z,99434.16
2022-12-23T01:26:46.476Z,99432.00
2022-12-23T01:27:18.615Z,99432.62
2022-12-23T01:27:50.454Z,99434.69
2022-12-23T01:28:22.309Z,99429.87
2022-12-23T01:28:58.139Z,99428.72
2022-12-23T01:29:30.075Z,99429.87
2022-12-23T01:30:01.945Z,99431.03
2022-12-23T01:30:33.792Z,99423.09
2022-12-23T01:31:07.905Z,99427.56
2022-12-23T01:31:39.769Z,99425.94
2022-12-23T01:32:11.672Z,99427.81
2022-12-23T01:32:43.900Z,99431.56
2022-12-23T01:33:15.741Z,99421.75
2022-12-23T01:33:48.255Z,99422.00
2022-12-23T01:34:20.114Z,99428.41
2022-12-23T01:34:51.941Z,99419.97
2022-12-23T01:35:23.822Z,99419.16
2022-12-23T01:36:03.666Z,99423.72
2022-12-23T01:36:35.506Z,99417.19
2022-12-23T01:37:07.361Z,99423.72
2022-12-23T01:37:39.208Z,99423.44
2022-12-23T01:38:11.331Z,99415.06
2022-12-23T01:38:43.253Z,99417.28
2022-12-23T01:39:15.087Z,99422.00
2022-12-23T01:39:46.982Z,99417.25
2022-12-23T01:40:18.925Z,99420.91
2022-12-23T01:40:50.777Z,99421.78
2022-12-23T01:41:46.965Z,99418.78
2022-12-23T01:42:39.476Z,99418.06
2022-12-23T01:43:19.778Z,99416.84
2022-12-23T01:43:52.282Z,99414.69
2022-12-23T01:44:54.994Z,99420.22
2022-12-23T01:45:31.896Z,99421.41
2022-12-23T01:46:03.856Z,99420.50
2022-12-23T01:46:35.711Z,99414.97
2022-12-23T01:47:13.193Z,99416.03
2022-12-23T01:47:45.039Z,99427.56
2022-12-23T01:48:25.185Z,99422.44
2022-12-23T01:48:57.674Z,99420.13
2022-12-23T01:49:29.484Z,99415.03
2022-12-23T01:50:23.320Z,99418.56
2022-12-23T01:51:02.317Z,99416.72
2022-12-23T01:51:34.222Z,99414.81
2022-12-23T01:52:06.071Z,99422.69
2022-12-23T01:52:50.106Z,99418.12
2022-12-23T01:53:30.803Z,99409.06
2022-12-23T01:54:02.818Z,99411.38
2022-12-23T01:54:36.167Z,99408.00
2022-12-23T01:55:08.571Z,99407.94
2022-12-23T01:55:51.600Z,99405.59
2022-12-23T01:56:33.202Z,99406.66
2022-12-23T01:57:05.273Z,99403.00
2022-12-23T01:57:41.354Z,99404.09
2022-12-23T01:58:28.262Z,99406.34
2022-12-23T01:59:06.919Z,99404.00
2022-12-23T01:59:58.120Z,99394.88
2022-12-23T02:00:48.675Z,99402.75
2022-12-23T02:01:40.245Z,99401.50
2022-12-23T02:02:31.046Z,99400.25
2022-12-23T02:03:21.756Z,99396.25
2022-12-23T02:03:57.757Z,99400.06
2022-12-23T02:04:29.669Z,99396.41
2022-12-23T02:05:02.341Z,99407.00
2022-12-23T02:05:35.047Z,99398.63
2022-12-23T02:06:25.911Z,99402.44
2022-12-23T02:07:16.351Z,99404.56
2022-12-23T02:08:07.403Z,99401.72
2022-12-23T02:09:02.835Z,99405.34
2022-12-23T02:09:38.132Z,99402.59
2022-12-23T02:10:10.301Z,99408.78
2022-12-23T02:11:13.207Z,99407.78
2022-12-23T02:11:58.601Z,99407.16
2022-12-23T02:12:55.370Z,99395.62
2022-12-23T02:14:31.525Z,99392.50
2022-12-23T02:15:37.016Z,99394.97
2022-12-23T02:16:19.435Z,99389.34
2022-12-23T02:17:01.816Z,99385.78
2022-12-23T02:18:05.658Z,99385.09
2022-12-23T02:18:52.454Z,99387.41
2022-12-23T02:19:52.785Z,99389.34
2022-12-23T02:21:11.834Z,99382.94
2022-12-23T02:21:46.391Z,99382.22
2022-12-23T02:22:36.789Z,99383.00
2022-12-23T02:23:34.589Z,99388.56
2022-12-23T02:24:12.263Z,99388.25
2022-12-23T02:24:58.553Z,99384.13
2022-12-23T02:26:07.948Z,99385.09
2022-12-23T02:27:12.536Z,99386.94
2022-12-23T02:28:03.080Z,99379.88
2022-12-23T02:28:43.852Z,99376.56
2022-12-23T02:29:27.612Z,99384.75
2022-12-23T02:30:45.958Z,99382.88
2022-12-23T02:31:44.273Z,99392.34
2022-12-23T02:32:38.308Z,99385.41
2022-12-23T02:34:01.102Z,99388.34
2022-12-23T02:34:45.799Z,99390.06
2022-12-23T02:35:30.862Z,99387.62
2022-12-23T02:36:27.181Z,99388.25
2022-12-23T02:37:24.047Z,99390.69
2022-12-23T02:38:11.903Z,99388.50
2022-12-23T02:39:18.768Z,99388.78
2022-12-23T02:39:57.939Z,99385.47
2022-12-23T02:41:06.570Z,99387.19
2022-12-23T02:42:02.347Z,99381.19
2022-12-23T02:42:38.830Z,99385.56
2022-12-23T02:43:22.982Z,99381.63
2022-12-23T02:44:02.287Z,99379.28
2022-12-23T02:44:44.520Z,99378.91
2022-12-23T02:45:26.447Z,99380.03
2022-12-23T02:46:01.279Z,99386.72
2022-12-23T02:46:38.495Z,99380.75
2022-12-23T02:47:14.889Z,99377.16
2022-12-23T02:48:00.470Z,99383.47
2022-12-23T02:48:39.667Z,99383.37
2022-12-23T02:49:33.942Z,99382.19
2022-12-23T02:50:17.779Z,99381.75
2022-12-23T02:50:53.372Z,99375.44
2022-12-23T02:51:31.829Z,99379.00
2022-12-23T02:52:08.802Z,99378.56
2022-12-23T02:52:43.980Z,99379.25
2022-12-23T02:53:28.736Z,99377.53
2022-12-23T02:54:04.119Z,99370.03
2022-12-23T02:54:41.868Z,99375.94
2022-12-23T02:55:19.606Z,99374.69
2022-12-23T02:55:54.980Z,99381.66
2022-12-23T02:56:30.847Z,99377.53
2022-12-23T02:57:05.296Z,99373.25
2022-12-23T02:57:42.223Z,99379.16
2022-12-23T02:58:18.056Z,99377.03
2022-12-23T02:58:55.948Z,99374.06
2022-12-23T02:59:31.686Z,99371.81
2022-12-23T03:00:05.892Z,99372.88
2022-12-23T03:00:40.052Z,99368.94
2022-12-23T03:01:15.299Z,99366.59
2022-12-23T03:01:47.873Z,99366.59
2022-12-23T03:02:20.160Z,99363.69
2022-12-23T03:02:52.677Z,99369.41
2022-12-23T03:03:26.226Z,99361.28
2022-12-23T03:03:58.308Z,99361.03
2022-12-23T03:04:30.281Z,99354.25
2022-12-23T03:05:02.127Z,99360.41
2022-12-23T03:05:40.590Z,99360.31
2022-12-23T03:06:22.918Z,99356.16
2022-12-23T03:06:56.672Z,99364.75
2022-12-23T03:07:38.054Z,99353.41
2022-12-23T03:08:45.678Z,99355.63
2022-12-23T03:09:34.863Z,99361.44
2022-12-23T03:10:20.181Z,99360.25
2022-12-23T03:11:07.767Z,99358.03
2022-12-23T03:12:01.383Z,99362.06
2022-12-23T03:12:47.521Z,99360.69
2022-12-23T03:13:42.071Z,99354.78
2022-12-23T03:14:32.810Z,99357.50
2022-12-23T03:15:22.972Z,99356.25
2022-12-23T03:16:03.904Z,99347.44
2022-12-23T03:16:44.710Z,99350.31
2022-12-23T03:17:54.521Z,99357.50
2022-12-23T03:19:03.578Z,99357.03
2022-12-23T03:19:35.385Z,99349.69
2022-12-23T03:20:34.768Z,99349.88
2022-12-23T03:21:21.769Z,99355.41
2022-12-23T03:21:53.540Z,99357.81
2022-12-23T03:22:32.490Z,99359.06
2022-12-23T03:23:08.712Z,99356.47
2022-12-23T03:23:55.564Z,99363.88
2022-12-23T03:24:42.344Z,99357.09
2022-12-23T03:25:32.255Z,99363.69
2022-12-23T03:26:14.226Z,99362.75
2022-12-23T03:27:03.978Z,99365.00
2022-12-23T03:27:47.945Z,99369.56
2022-12-23T03:28:30.515Z,99371.91
2022-12-23T03:29:15.640Z,99365.66
2022-12-23T03:30:06.215Z,99361.34
2022-12-23T03:30:43.314Z,99360.66
2022-12-23T03:31:22.816Z,99362.09
2022-12-23T03:31:59.370Z,99366.09
2022-12-23T03:32:39.134Z,99358.97
2022-12-23T03:33:14.838Z,99357.72
2022-12-23T03:33:53.833Z,99360.94
2022-12-23T03:34:31.075Z,99360.56
2022-12-23T03:35:07.672Z,99364.50
2022-12-23T03:36:03.144Z,99362.25
2022-12-23T03:37:04.264Z,99361.09
2022-12-23T03:37:39.755Z,99363.38
2022-12-23T03:38:14.964Z,99357.91
2022-12-23T03:38:50.238Z,99363.88
2022-12-23T03:39:26.261Z,99351.94
2022-12-23T03:40:10.848Z,99352.56
2022-12-23T03:40:47.304Z,99354.91
2022-12-23T03:41:31.608Z,99361.84
2022-12-23T03:42:15.870Z,99355.88
2022-12-23T03:42:51.412Z,99359.84
2022-12-23T03:43:28.828Z,99358.22
2022-12-23T03:44:09.393Z,99358.97
2022-12-23T03:45:10.827Z,99363.94
2022-12-23T03:45:45.350Z,99359.38
2022-12-23T03:46:23.583Z,99361.91
2022-12-23T03:47:05.093Z,99359.88
2022-12-23T03:47:46.712Z,99365.50
2022-12-23T03:48:29.535Z,99363.88
2022-12-23T03:49:09.153Z,99362.16
2022-12-23T03:49:57.721Z,99365.47
2022-12-23T03:50:32.121Z,99363.25
2022-12-23T03:51:11.551Z,99361.97
2022-12-23T03:51:55.480Z,99361.06
2022-12-23T03:52:53.447Z,99361.59
2022-12-23T03:53:54.812Z,99364.50
2022-12-23T03:54:34.263Z,99355.16
2022-12-23T03:55:09.793Z,99360.59
2022-12-23T03:55:48.502Z,99357.72
2022-12-23T03:56:29.480Z,99364.75
2022-12-23T03:57:05.452Z,99357.34
2022-12-23T03:57:43.197Z,99354.50
2022-12-23T03:58:39.896Z,99358.44
2022-12-23T03:59:26.353Z,99350.19
2022-12-23T03:59:58.653Z,99357.00
2022-12-23T04:00:36.000Z,99353.03
2022-12-23T04:01:49.925Z,99358.47
2022-12-23T04:02:38.034Z,99357.50
2022-12-23T04:03:28.604Z,99354.94
2022-12-23T04:04:11.235Z,99352.34
2022-12-23T04:05:01.171Z,99353.41
2022-12-23T04:05:36.441Z,99350.09
2022-12-23T04:06:14.438Z,99349.22
2022-12-23T04:07:20.487Z,99345.47
2022-12-23T04:08:06.361Z,99352.69
2022-12-23T04:08:39.955Z,99342.88
2022-12-23T04:09:16.653Z,99346.72
2022-12-23T04:09:53.600Z,99347.34
2022-12-23T04:10:26.246Z,99347.22
2022-12-23T04:10:58.712Z,99347.22
2022-12-23T04:11:31.056Z,99354.25
2022-12-23T04:12:03.496Z,99352.81
2022-12-23T04:12:36.102Z,99352.03
2022-12-23T04:13:08.313Z,99353.28
2022-12-23T04:13:40.735Z,99352.09
2022-12-23T04:14:20.545Z,99346.84
2022-12-23T04:14:52.441Z,99354.03
2022-12-23T04:15:26.372Z,99348.38
2022-12-23T04:15:59.704Z,99346.22
2022-12-23T04:16:33.063Z,99343.09
2022-12-23T04:17:05.071Z,99342.34
2022-12-23T04:17:36.973Z,99337.09
2022-12-23T04:18:10.919Z,99337.00
2022-12-23T04:18:42.790Z,99336.22
2022-12-23T04:19:15.261Z,99335.41
2022-12-23T04:19:47.689Z,99336.91
2022-12-23T04:20:19.632Z,99338.47
2022-12-23T04:20:51.483Z,99344.41
2022-12-23T04:21:23.332Z,99342.88
2022-12-23T04:21:56.954Z,99343.06
2022-12-23T04:22:31.855Z,99341.38
2022-12-23T04:23:04.163Z,99343.47
2022-12-23T04:23:36.001Z,99340.13
2022-12-23T04:24:08.519Z,99336.22
2022-12-23T04:24:40.449Z,99348.44
2022-12-23T04:25:14.197Z,99347.91
2022-12-23T04:25:46.180Z,99349.69
2022-12-23T04:26:18.077Z,99352.09
2022-12-23T04:26:49.929Z,99344.44
2022-12-23T04:27:22.059Z,99345.72
2022-12-23T04:27:53.977Z,99350.38
2022-12-23T04:28:25.844Z,99355.00
2022-12-23T04:28:57.761Z,99343.25
2022-12-23T04:29:29.635Z,99339.16
2022-12-23T04:30:01.578Z,99336.09
2022-12-23T04:30:34.610Z,99335.19
2022-12-23T04:31:06.892Z,99339.56
2022-12-23T04:31:38.848Z,99330.44
2022-12-23T04:32:10.906Z,99334.91
2022-12-23T04:32:43.440Z,99335.88
2022-12-23T04:33:15.257Z,99328.91
2022-12-23T04:33:47.689Z,99336.38
2022-12-23T04:34:19.577Z,99333.44
2022-12-23T04:34:51.431Z,99334.97
2022-12-23T04:35:23.372Z,99330.41
2022-12-23T04:35:55.190Z,99340.94
2022-12-23T04:36:27.109Z,99337.75
2022-12-23T04:36:58.959Z,99332.38
2022-12-23T04:37:30.907Z,99340.59
2022-12-23T04:38:03.576Z,99342.44
2022-12-23T04:38:35.420Z,99336.13
2022-12-23T04:39:07.283Z,99340.94
2022-12-23T04:39:39.147Z,99333.00
2022-12-23T04:40:11.177Z,99332.06
2022-12-23T04:40:46.987Z,99331.53
2022-12-23T04:41:18.920Z,99334.66
2022-12-23T04:41:51.073Z,99331.44
2022-12-23T04:42:23.698Z,99332.88
2022-12-23T04:42:55.632Z,99328.97
2022-12-23T04:43:27.806Z,99325.47
2022-12-23T04:43:59.651Z,99335.66
2022-12-23T04:44:31.496Z,99333.78
2022-12-23T04:45:03.806Z,99338.34
2022-12-23T04:45:35.680Z,99332.56
2022-12-23T04:46:07.595Z,99333.53
2022-12-23T04:46:39.514Z,99329.78
2022-12-23T04:47:11.407Z,99332.13
2022-12-23T04:47:43.246Z,99337.37
2022-12-23T04:48:15.109Z,99340.22
2022-12-23T04:48:47.328Z,99337.44
2022-12-23T04:49:19.262Z,99341.81
2022-12-23T04:49:51.106Z,99338.66
2022-12-23T04:50:23.014Z,99341.47
2022-12-23T04:50:54.830Z,99333.31
2022-12-23T04:51:26.813Z,99342.06
2022-12-23T04:51:58.889Z,99338.97
2022-12-23T04:52:30.719Z,99336.50
2022-12-23T04:53:02.640Z,99343.88
2022-12-23T04:53:36.843Z,99338.16
2022-12-23T04:54:08.964Z,99348.97
2022-12-23T04:54:45.935Z,99345.31
2022-12-23T04:55:18.463Z,99344.47
2022-12-23T04:55:51.696Z,99348.59
2022-12-23T04:56:23.533Z,99339.88
2022-12-23T04:56:55.461Z,99344.16
2022-12-23T04:57:27.322Z,99341.09
2022-12-23T04:57:59.152Z,99340.69
2022-12-23T04:58:30.986Z,99345.19
2022-12-23T04:59:04.296Z,99343.63
2022-12-23T04:59:36.500Z,99345.84
2022-12-23T05:00:08.967Z,99343.72
2022-12-23T05:00:41.030Z,99346.56
2022-12-23T05:01:13.368Z,99338.03
2022-12-23T05:01:45.387Z,99342.72
2022-12-23T05:02:17.442Z,99338.16
2022-12-23T05:02:49.538Z,99344.09
2022-12-23T05:03:21.572Z,99343.63
2022-12-23T05:03:53.492Z,99343.63
2022-12-23T05:04:25.366Z,99347.22
2022-12-23T05:04:57.558Z,99349.19
2022-12-23T05:05:29.394Z,99347.41
2022-12-23T05:06:01.292Z,99350.78
2022-12-23T05:06:33.171Z,99352.78
2022-12-23T05:07:05.376Z,99350.97
2022-12-23T05:07:37.225Z,99348.09
2022-12-23T05:08:09.066Z,99349.41
2022-12-23T05:08:40.936Z,99353.41
2022-12-23T05:09:12.787Z,99357.00
2022-12-23T05:09:44.662Z,99349.53
2022-12-23T05:10:17.083Z,99355.28
2022-12-23T05:10:48.999Z,99356.69
2022-12-23T05:11:20.885Z,99351.00
2022-12-23T05:11:52.721Z,99354.94
2022-12-23T05:12:24.542Z,99352.25
2022-12-23T05:12:56.475Z,99353.75
2022-12-23T05:13:28.358Z,99354.22
2022-12-23T05:14:00.247Z,99360.63
2022-12-23T05:14:32.086Z,99350.72
2022-12-23T05:15:04.167Z,99351.03
2022-12-23T05:15:36.282Z,99353.09
2022-12-23T05:16:08.314Z,99360.28
2022-12-23T05:16:40.322Z,99354.34
2022-12-23T05:17:12.172Z,99354.53
2022-12-23T05:17:43.994Z,99358.41
2022-12-23T05:18:16.614Z,99348.13
2022-12-23T05:18:48.480Z,99347.59
2022-12-23T05:19:20.342Z,99350.28
2022-12-23T05:19:52.224Z,99345.72
2022-12-23T05:20:24.048Z,99344.66
2022-12-23T05:20:56.219Z,99343.00
2022-12-23T05:21:28.130Z,99346.37
2022-12-23T05:21:59.954Z,99342.81
2022-12-23T05:22:31.893Z,99350.50
2022-12-23T05:23:03.791Z,99350.06
2022-12-23T05:23:35.797Z,99349.72
2022-12-23T05:24:07.752Z,99349.94
2022-12-23T05:24:39.608Z,99352.25
2022-12-23T05:25:11.501Z,99347.94
2022-12-23T05:25:43.320Z,99349.56
2022-12-23T05:26:15.435Z,99350.97
2022-12-23T05:26:50.833Z,99347.34
2022-12-23T05:27:27.444Z,99352.81
2022-12-23T05:27:59.410Z,99352.91
2022-12-23T05:28:31.273Z,99352.53
2022-12-23T05:29:03.185Z,99352.09
2022-12-23T05:29:35.093Z,99351.84
2022-12-23T05:30:07.764Z,99352.66
2022-12-23T05:30:39.709Z,99354.34
2022-12-23T05:31:12.398Z,99351.38
2022-12-23T05:31:44.657Z,99353.69
2022-12-23T05:32:16.533Z,99353.06
2022-12-23T05:32:48.352Z,99352.00
2022-12-23T05:33:20.261Z,99360.63
2022-12-23T05:33:52.183Z,99360.34
2022-12-23T05:34:24.078Z,99358.66
2022-12-23T05:34:55.870Z,99362.94
2022-12-23T05:35:28.414Z,99358.50
2022-12-23T05:36:01.258Z,99362.59
2022-12-23T05:36:33.285Z,99360.69
2022-12-23T05:37:05.448Z,99375.34
2022-12-23T05:37:37.302Z,99369.37
2022-12-23T05:38:09.158Z,99370.25
2022-12-23T05:38:41.012Z,99365.12
2022-12-23T05:39:12.909Z,99360.34
2022-12-23T05:39:44.766Z,99364.09
2022-12-23T05:40:21.587Z,99363.31
2022-12-23T05:40:55.562Z,99364.19
2022-12-23T05:41:27.494Z,99360.69
2022-12-23T05:41:59.339Z,99359.59
2022-12-23T05:42:31.503Z,99355.84
2022-12-23T05:43:03.360Z,99359.22
2022-12-23T05:43:35.209Z,99355.41
2022-12-23T05:44:07.035Z,99360.84
2022-12-23T05:44:39.112Z,99360.47
2022-12-23T05:45:11.334Z,99356.28
2022-12-23T05:45:43.269Z,99351.94
2022-12-23T05:46:15.324Z,99355.94
2022-12-23T05:46:47.772Z,99354.28
2022-12-23T05:47:19.600Z,99346.78
2022-12-23T05:47:51.733Z,99351.94
2022-12-23T05:48:23.975Z,99353.56
2022-12-23T05:48:55.854Z,99353.56
2022-12-23T05:49:27.769Z,99356.94
2022-12-23T05:49:59.634Z,99355.91
2022-12-23T05:50:31.636Z,99352.16
2022-12-23T05:51:06.897Z,99363.53
2022-12-23T05:51:39.126Z,99348.97
2022-12-23T05:52:10.986Z,99356.75
2022-12-23T05:52:42.830Z,99357.56
2022-12-23T05:53:15.015Z,99357.50
2022-12-23T05:53:46.953Z,99357.94
2022-12-23T05:54:18.887Z,99359.16
2022-12-23T05:54:50.802Z,99344.09
2022-12-23T05:55:22.640Z,99355.25
2022-12-23T05:55:54.516Z,99353.63
2022-12-23T05:56:26.369Z,99357.56
2022-12-23T05:56:58.205Z,99354.34
2022-12-23T05:57:31.927Z,99355.25
2022-12-23T05:58:03.795Z,99354.25
2022-12-23T05:58:35.949Z,99348.69
2022-12-23T05:59:08.184Z,99357.47
2022-12-23T05:59:40.025Z,99360.63
2022-12-23T06:00:12.451Z,99359.41
2022-12-23T06:00:44.696Z,99353.50
2022-12-23T06:01:17.024Z,99360.97
2022-12-23T06:01:49.017Z,99354.59
2022-12-23T06:02:22.113Z,99356.81
2022-12-23T06:02:54.691Z,99347.81
2022-12-23T06:03:26.808Z,99348.34
2022-12-23T06:03:58.899Z,99353.53
2022-12-23T06:04:31.033Z,99353.44
2022-12-23T06:05:03.032Z,99354.03
2022-12-23T06:05:37.706Z,99350.84
2022-12-23T06:06:09.548Z,99351.94
2022-12-23T06:06:41.675Z,99356.31
2022-12-23T06:07:13.636Z,99355.13
2022-12-23T06:07:45.444Z,99364.38
2022-12-23T06:08:17.360Z,99361.97
2022-12-23T06:08:53.151Z,99367.78
2022-12-23T06:09:27.668Z,99364.81
2022-12-23T06:09:59.487Z,99357.22
2022-12-23T06:10:31.595Z,99360.03
2022-12-23T06:11:06.847Z,99360.03
2022-12-23T06:11:38.710Z,99359.41
2022-12-23T06:12:10.842Z,99370.97
2022-12-23T06:12:42.778Z,99367.78
2022-12-23T06:13:14.718Z,99372.97
2022-12-23T06:13:46.786Z,99370.03
2022-12-23T06:14:21.460Z,99371.06
2022-12-23T06:14:57.081Z,99368.84
2022-12-23T06:15:28.913Z,99369.22
2022-12-23T06:16:00.877Z,99370.91
2022-12-23T06:16:33.044Z,99373.50
2022-12-23T06:17:05.255Z,99367.97
2022-12-23T06:17:37.468Z,99367.28
2022-12-23T06:18:09.350Z,99373.16
2022-12-23T06:18:41.258Z,99364.66
2022-12-23T06:19:13.078Z,99361.34
2022-12-23T06:19:44.934Z,99368.59
2022-12-23T06:20:20.776Z,99368.50
2022-12-23T06:20:53.038Z,99366.13
2022-12-23T06:21:25.618Z,99375.34
2022-12-23T06:21:57.543Z,99372.88
2022-12-23T06:22:29.415Z,99380.34
2022-12-23T06:23:01.776Z,99382.41
2022-12-23T06:23:33.690Z,99376.19
2022-12-23T06:24:06.009Z,99379.22
2022-12-23T06:24:37.871Z,99379.31
2022-12-23T06:25:09.976Z,99384.53
2022-12-23T06:25:41.834Z,99381.53
2022-12-23T06:26:13.781Z,99386.72
2022-12-23T06:26:45.610Z,99380.78
2022-12-23T06:27:18.430Z,99380.47
2022-12-23T06:27:50.343Z,99386.59
2022-12-23T06:28:22.453Z,99391.87
2022-12-23T06:28:54.409Z,99385.72
2022-12-23T06:29:26.298Z,99385.72
2022-12-23T06:29:58.131Z,99381.53
2022-12-23T06:30:30.027Z,99387.41
2022-12-23T06:31:01.923Z,99382.69
2022-12-23T06:31:33.897Z,99385.25
2022-12-23T06:32:06.215Z,99378.72
2022-12-23T06:32:39.064Z,99379.09
2022-12-23T06:33:10.964Z,99375.72
2022-12-23T06:33:43.208Z,99378.13
2022-12-23T06:34:15.091Z,99375.63
2022-12-23T06:34:46.986Z,99371.72
2022-12-23T06:35:18.851Z,99371.28
2022-12-23T06:35:50.791Z,99381.59
2022-12-23T06:36:22.699Z,99371.62
2022-12-23T06:36:54.534Z,99373.94
2022-12-23T06:37:26.361Z,99375.19
2022-12-23T06:37:58.242Z,99373.56
2022-12-23T06:38:30.115Z,99372.97
2022-12-23T06:39:02.263Z,99364.38
2022-12-23T06:39:34.146Z,99376.09
2022-12-23T06:40:06.647Z,99366.28
2022-12-23T06:40:38.536Z,99368.97
2022-12-23T06:41:10.430Z,99369.66
2022-12-23T06:41:42.279Z,99370.44
2022-12-23T06:42:15.669Z,99363.69
2022-12-23T06:42:47.622Z,99368.41
2022-12-23T06:43:19.587Z,99365.56
2022-12-23T06:43:54.382Z,99368.66
2022-12-23T06:44:26.822Z,99372.69
2022-12-23T06:44:58.750Z,99358.88
2022-12-23T06:45:30.645Z,99363.88
2022-12-23T06:46:02.597Z,99365.22
2022-12-23T06:46:34.475Z,99358.34
2022-12-23T06:47:06.375Z,99363.06
2022-12-23T06:47:38.226Z,99366.19
2022-12-23T06:48:10.064Z,99374.78
2022-12-23T06:48:41.891Z,99367.38
2022-12-23T06:49:14.148Z,99371.53
2022-12-23T06:49:46.442Z,99368.53
2022-12-23T06:50:18.285Z,99371.38
2022-12-23T06:50:50.135Z,99361.84
2022-12-23T06:51:22.041Z,99369.31
2022-12-23T06:51:54.263Z,99369.50
2022-12-23T06:52:26.140Z,99363.53
2022-12-23T06:52:58.026Z,99368.97
2022-12-23T06:53:29.870Z,99365.38
2022-12-23T06:54:01.954Z,99357.38
2022-12-23T06:54:33.845Z,99362.28
2022-12-23T06:55:06.574Z,99354.78
2022-12-23T06:55:38.510Z,99356.56
2022-12-23T06:56:10.858Z,99352.19
2022-12-23T06:56:42.693Z,99355.16
2022-12-23T06:57:14.533Z,99357.09
2022-12-23T06:57:46.423Z,99359.16
2022-12-23T06:58:18.247Z,99366.34
2022-12-23T06:58:50.926Z,99367.16
2022-12-23T06:59:23.250Z,99364.75
2022-12-23T06:59:55.285Z,99367.25
2022-12-23T07:00:27.540Z,99359.25
2022-12-23T07:00:59.639Z,99363.06
2022-12-23T07:01:31.584Z,99357.47
2022-12-23T07:02:03.835Z,99358.88
2022-12-23T07:02:36.120Z,99359.69
2022-12-23T07:03:08.206Z,99363.78
2022-12-23T07:03:40.361Z,99362.78
2022-12-23T07:04:12.292Z,99359.41
2022-12-23T07:04:44.123Z,99363.53
2022-12-23T07:05:17.048Z,99363.16
2022-12-23T07:05:50.339Z,99359.59
2022-12-23T07:06:22.215Z,99362.53